sensor_id;sensor_type;location;lat;lon;timestamp;P1;durP1;ratioP1;P2;durP2;ratioP2
54929;SDS011;40833;53.238;6.576;2022-08-19T00:00:13;7.90;;;5.10;;
54929;SDS011;40833;53.238;6.576;2022-08-19T00:02:39;10.23;;;5.93;;
54929;SDS011;40833;53.238;6.576;2022-08-19T00:05:06;9.93;;;5.87;;
54929;SDS011;40833;53.238;6.576;2022-08-19T00:07:33;8.80;;;4.97;;
54929;SDS011;40833;53.238;6.576;2022-08-19T00:09:59;8.03;;;6.23;;
54929;SDS011;40833;53.238;6.576;2022-08-19T00:12:25;10.97;;;6.50;;
54929;SDS011;40833;53.238;6.576;2022-08-19T00:14:50;10.40;;;6.20;;
54929;SDS011;40833;53.238;6.576;2022-08-19T00:17:18;8.83;;;5.73;;
54929;SDS011;40833;53.238;6.576;2022-08-19T00:19:43;7.13;;;5.97;;
54929;SDS011;40833;53.238;6.576;2022-08-19T00:22:09;6.57;;;5.53;;
54929;SDS011;40833;53.238;6.576;2022-08-19T00:24:34;8.03;;;6.23;;
54929;SDS011;40833;53.238;6.576;2022-08-19T00:27:01;7.93;;;6.03;;
54929;SDS011;40833;53.238;6.576;2022-08-19T00:29:27;10.53;;;5.83;;
54929;SDS011;40833;53.238;6.576;2022-08-19T00:31:53;6.10;;;5.50;;
54929;SDS011;40833;53.238;6.576;2022-08-19T00:34:21;7.10;;;5.97;;
54929;SDS011;40833;53.238;6.576;2022-08-19T00:36:47;11.57;;;6.13;;
54929;SDS011;40833;53.238;6.576;2022-08-19T00:39:14;8.50;;;6.00;;
54929;SDS011;40833;53.238;6.576;2022-08-19T00:41:41;6.73;;;5.80;;
54929;SDS011;40833;53.238;6.576;2022-08-19T00:44:10;8.07;;;5.83;;
54929;SDS011;40833;53.238;6.576;2022-08-19T00:46:39;8.27;;;6.30;;
54929;SDS011;40833;53.238;6.576;2022-08-19T00:49:18;6.82;;;5.60;;
54929;SDS011;40833;53.238;6.576;2022-08-19T00:51:48;6.97;;;5.70;;
54929;SDS011;40833;53.238;6.576;2022-08-19T00:54:17;8.30;;;5.97;;
54929;SDS011;40833;53.238;6.576;2022-08-19T00:56:43;8.27;;;5.53;;
54929;SDS011;40833;53.238;6.576;2022-08-19T00:59:12;8.47;;;5.97;;
54929;SDS011;40833;53.238;6.576;2022-08-19T01:01:39;7.83;;;5.80;;
54929;SDS011;40833;53.238;6.576;2022-08-19T01:04:07;7.93;;;5.30;;
54929;SDS011;40833;53.238;6.576;2022-08-19T01:06:33;7.13;;;6.07;;
54929;SDS011;40833;53.238;6.576;2022-08-19T01:09:01;7.23;;;5.73;;
54929;SDS011;40833;53.238;6.576;2022-08-19T01:11:27;7.83;;;5.47;;
54929;SDS011;40833;53.238;6.576;2022-08-19T01:13:55;8.03;;;5.60;;
54929;SDS011;40833;53.238;6.576;2022-08-19T01:16:22;8.23;;;5.83;;
54929;SDS011;40833;53.238;6.576;2022-08-19T01:18:52;7.83;;;5.53;;
54929;SDS011;40833;53.238;6.576;2022-08-19T01:24:42;6.93;;;5.10;;
54929;SDS011;40833;53.238;6.576;2022-08-19T01:27:08;7.37;;;6.40;;
54929;SDS011;40833;53.238;6.576;2022-08-19T01:29:36;7.80;;;6.10;;
54929;SDS011;40833;53.238;6.576;2022-08-19T01:32:03;8.80;;;5.67;;
54929;SDS011;40833;53.238;6.576;2022-08-19T01:34:29;7.47;;;6.57;;
54929;SDS011;40833;53.238;6.576;2022-08-19T01:36:55;7.03;;;5.77;;
54929;SDS011;40833;53.238;6.576;2022-08-19T01:39:22;6.70;;;6.00;;
54929;SDS011;40833;53.238;6.576;2022-08-19T01:41:49;10.67;;;6.20;;
54929;SDS011;40833;53.238;6.576;2022-08-19T01:44:19;6.93;;;5.67;;
54929;SDS011;40833;53.238;6.576;2022-08-19T01:46:49;7.30;;;6.60;;
54929;SDS011;40833;53.238;6.576;2022-08-19T01:49:17;8.10;;;5.77;;
54929;SDS011;40833;53.238;6.576;2022-08-19T01:51:45;8.30;;;6.20;;
54929;SDS011;40833;53.238;6.576;2022-08-19T01:54:12;7.03;;;6.43;;
54929;SDS011;40833;53.238;6.576;2022-08-19T01:56:43;10.00;;;6.40;;
54929;SDS011;40833;53.238;6.576;2022-08-19T01:59:13;8.13;;;6.17;;
54929;SDS011;40833;53.238;6.576;2022-08-19T02:01:41;6.67;;;6.07;;
54929;SDS011;40833;53.238;6.576;2022-08-19T02:04:07;10.97;;;7.07;;
54929;SDS011;40833;53.238;6.576;2022-08-19T02:06:34;9.07;;;7.10;;
54929;SDS011;40833;53.238;6.576;2022-08-19T02:09:00;11.33;;;6.83;;
54929;SDS011;40833;53.238;6.576;2022-08-19T02:11:27;10.53;;;7.47;;
54929;SDS011;40833;53.238;6.576;2022-08-19T02:13:56;11.93;;;8.63;;
54929;SDS011;40833;53.238;6.576;2022-08-19T02:16:23;12.90;;;8.90;;
54929;SDS011;40833;53.238;6.576;2022-08-19T02:18:49;15.13;;;9.63;;
54929;SDS011;40833;53.238;6.576;2022-08-19T02:21:19;12.03;;;9.90;;
54929;SDS011;40833;53.238;6.576;2022-08-19T02:23:47;13.98;;;9.98;;
54929;SDS011;40833;53.238;6.576;2022-08-19T02:26:13;15.07;;;10.23;;
54929;SDS011;40833;53.238;6.576;2022-08-19T02:28:40;17.47;;;11.10;;
54929;SDS011;40833;53.238;6.576;2022-08-19T02:31:10;13.03;;;9.20;;
54929;SDS011;40833;53.238;6.576;2022-08-19T02:33:40;13.63;;;9.80;;
54929;SDS011;40833;53.238;6.576;2022-08-19T02:36:06;16.50;;;9.87;;
54929;SDS011;40833;53.238;6.576;2022-08-19T02:38:33;18.80;;;10.23;;
54929;SDS011;40833;53.238;6.576;2022-08-19T02:41:04;16.63;;;10.33;;
54929;SDS011;40833;53.238;6.576;2022-08-19T02:43:34;16.00;;;11.17;;
54929;SDS011;40833;53.238;6.576;2022-08-19T02:46:18;15.27;;;10.37;;
54929;SDS011;40833;53.238;6.576;2022-08-19T02:48:51;13.10;;;9.23;;
54929;SDS011;40833;53.238;6.576;2022-08-19T02:51:24;15.50;;;10.00;;
54929;SDS011;40833;53.238;6.576;2022-08-19T02:53:53;13.13;;;8.80;;
54929;SDS011;40833;53.238;6.576;2022-08-19T02:56:19;12.23;;;9.60;;
54929;SDS011;40833;53.238;6.576;2022-08-19T02:58:45;11.90;;;8.73;;
54929;SDS011;40833;53.238;6.576;2022-08-19T03:01:19;12.93;;;8.63;;
54929;SDS011;40833;53.238;6.576;2022-08-19T03:03:55;13.77;;;9.10;;
54929;SDS011;40833;53.238;6.576;2022-08-19T03:06:22;9.20;;;7.97;;
54929;SDS011;40833;53.238;6.576;2022-08-19T03:08:48;9.23;;;7.70;;
54929;SDS011;40833;53.238;6.576;2022-08-19T03:11:18;12.23;;;7.40;;
54929;SDS011;40833;53.238;6.576;2022-08-19T03:13:47;9.90;;;7.63;;
54929;SDS011;40833;53.238;6.576;2022-08-19T03:16:19;14.23;;;8.00;;
54929;SDS011;40833;53.238;6.576;2022-08-19T03:18:46;11.70;;;7.03;;
54929;SDS011;40833;53.238;6.576;2022-08-19T03:21:31;7.97;;;6.57;;
54929;SDS011;40833;53.238;6.576;2022-08-19T03:23:59;10.23;;;7.00;;
54929;SDS011;40833;53.238;6.576;2022-08-19T03:26:26;7.13;;;6.33;;
54929;SDS011;40833;53.238;6.576;2022-08-19T03:28:52;9.43;;;6.10;;
54929;SDS011;40833;53.238;6.576;2022-08-19T03:31:19;7.07;;;6.37;;
54929;SDS011;40833;53.238;6.576;2022-08-19T03:33:48;7.93;;;5.77;;
54929;SDS011;40833;53.238;6.576;2022-08-19T03:36:21;7.27;;;6.10;;
54929;SDS011;40833;53.238;6.576;2022-08-19T03:38:49;9.63;;;6.07;;
54929;SDS011;40833;53.238;6.576;2022-08-19T03:41:22;8.52;;;6.03;;
54929;SDS011;40833;53.238;6.576;2022-08-19T03:43:53;10.00;;;6.27;;
54929;SDS011;40833;53.238;6.576;2022-08-19T03:46:20;7.67;;;6.43;;
54929;SDS011;40833;53.238;6.576;2022-08-19T03:48:49;8.17;;;6.00;;
54929;SDS011;40833;53.238;6.576;2022-08-19T03:51:20;7.45;;;5.90;;
54929;SDS011;40833;53.238;6.576;2022-08-19T03:53:49;8.80;;;6.07;;
54929;SDS011;40833;53.238;6.576;2022-08-19T03:56:16;6.23;;;5.60;;
54929;SDS011;40833;53.238;6.576;2022-08-19T03:58:43;8.13;;;5.20;;
54929;SDS011;40833;53.238;6.576;2022-08-19T04:01:11;6.80;;;6.20;;
54929;SDS011;40833;53.238;6.576;2022-08-19T04:03:41;7.47;;;6.13;;
54929;SDS011;40833;53.238;6.576;2022-08-19T04:06:15;6.80;;;5.70;;
54929;SDS011;40833;53.238;6.576;2022-08-19T04:08:43;8.77;;;5.77;;
54929;SDS011;40833;53.238;6.576;2022-08-19T04:11:12;7.90;;;5.87;;
54929;SDS011;40833;53.238;6.576;2022-08-19T04:13:40;9.80;;;6.37;;
54929;SDS011;40833;53.238;6.576;2022-08-19T04:16:08;9.27;;;6.23;;
54929;SDS011;40833;53.238;6.576;2022-08-19T04:18:35;10.10;;;6.73;;
54929;SDS011;40833;53.238;6.576;2022-08-19T04:21:03;6.33;;;5.63;;
54929;SDS011;40833;53.238;6.576;2022-08-19T04:23:29;7.67;;;6.00;;
54929;SDS011;40833;53.238;6.576;2022-08-19T04:25:56;7.13;;;6.17;;
54929;SDS011;40833;53.238;6.576;2022-08-19T04:28:23;8.40;;;6.40;;
54929;SDS011;40833;53.238;6.576;2022-08-19T04:30:50;8.13;;;6.60;;
54929;SDS011;40833;53.238;6.576;2022-08-19T04:33:19;8.70;;;7.23;;
54929;SDS011;40833;53.238;6.576;2022-08-19T04:35:47;9.53;;;7.10;;
54929;SDS011;40833;53.238;6.576;2022-08-19T04:38:15;9.33;;;6.53;;
54929;SDS011;40833;53.238;6.576;2022-08-19T04:40:46;8.97;;;6.83;;
54929;SDS011;40833;53.238;6.576;2022-08-19T04:43:33;10.83;;;7.63;;
54929;SDS011;40833;53.238;6.576;2022-08-19T04:46:06;9.93;;;6.87;;
54929;SDS011;40833;53.238;6.576;2022-08-19T04:48:34;11.93;;;8.23;;
54929;SDS011;40833;53.238;6.576;2022-08-19T04:51:00;9.50;;;6.83;;
54929;SDS011;40833;53.238;6.576;2022-08-19T04:53:27;10.33;;;8.13;;
54929;SDS011;40833;53.238;6.576;2022-08-19T04:55:57;9.57;;;7.47;;
54929;SDS011;40833;53.238;6.576;2022-08-19T04:58:25;10.37;;;7.40;;
54929;SDS011;40833;53.238;6.576;2022-08-19T05:00:52;12.17;;;7.70;;
54929;SDS011;40833;53.238;6.576;2022-08-19T05:03:18;12.53;;;8.00;;
54929;SDS011;40833;53.238;6.576;2022-08-19T05:05:45;13.83;;;8.07;;
54929;SDS011;40833;53.238;6.576;2022-08-19T05:08:13;9.83;;;8.23;;
54929;SDS011;40833;53.238;6.576;2022-08-19T05:10:44;15.90;;;9.65;;
54929;SDS011;40833;53.238;6.576;2022-08-19T05:13:15;15.30;;;9.43;;
54929;SDS011;40833;53.238;6.576;2022-08-19T05:15:42;16.23;;;10.00;;
54929;SDS011;40833;53.238;6.576;2022-08-19T05:18:08;12.13;;;8.60;;
54929;SDS011;40833;53.238;6.576;2022-08-19T05:20:53;10.17;;;8.83;;
54929;SDS011;40833;53.238;6.576;2022-08-19T05:23:38;13.40;;;9.17;;
54929;SDS011;40833;53.238;6.576;2022-08-19T05:26:04;13.70;;;9.67;;
54929;SDS011;40833;53.238;6.576;2022-08-19T05:28:30;17.13;;;10.70;;
54929;SDS011;40833;53.238;6.576;2022-08-19T05:30:56;17.23;;;9.97;;
54929;SDS011;40833;53.238;6.576;2022-08-19T05:33:22;20.27;;;10.43;;
54929;SDS011;40833;53.238;6.576;2022-08-19T05:35:49;17.87;;;10.50;;
54929;SDS011;40833;53.238;6.576;2022-08-19T05:38:16;18.57;;;9.97;;
54929;SDS011;40833;53.238;6.576;2022-08-19T05:40:42;17.87;;;10.93;;
54929;SDS011;40833;53.238;6.576;2022-08-19T05:43:14;15.43;;;9.85;;
54929;SDS011;40833;53.238;6.576;2022-08-19T05:45:41;20.87;;;12.20;;
54929;SDS011;40833;53.238;6.576;2022-08-19T05:48:11;18.30;;;12.40;;
54929;SDS011;40833;53.238;6.576;2022-08-19T05:50:39;19.13;;;11.80;;
54929;SDS011;40833;53.238;6.576;2022-08-19T05:53:06;20.73;;;12.83;;
54929;SDS011;40833;53.238;6.576;2022-08-19T05:55:33;16.03;;;11.17;;
54929;SDS011;40833;53.238;6.576;2022-08-19T05:58:01;18.70;;;11.87;;
54929;SDS011;40833;53.238;6.576;2022-08-19T06:00:27;19.40;;;11.17;;
54929;SDS011;40833;53.238;6.576;2022-08-19T06:02:55;16.20;;;10.97;;
54929;SDS011;40833;53.238;6.576;2022-08-19T06:05:27;18.07;;;12.77;;
54929;SDS011;40833;53.238;6.576;2022-08-19T06:07:57;18.17;;;13.07;;
54929;SDS011;40833;53.238;6.576;2022-08-19T06:10:26;17.73;;;11.90;;
54929;SDS011;40833;53.238;6.576;2022-08-19T06:12:52;20.00;;;12.23;;
54929;SDS011;40833;53.238;6.576;2022-08-19T06:15:18;18.53;;;12.07;;
54929;SDS011;40833;53.238;6.576;2022-08-19T06:17:50;17.63;;;10.73;;
54929;SDS011;40833;53.238;6.576;2022-08-19T06:20:16;14.87;;;9.93;;
54929;SDS011;40833;53.238;6.576;2022-08-19T06:22:44;17.27;;;10.30;;
54929;SDS011;40833;53.238;6.576;2022-08-19T06:25:12;12.53;;;9.90;;
54929;SDS011;40833;53.238;6.576;2022-08-19T06:27:39;15.77;;;10.17;;
54929;SDS011;40833;53.238;6.576;2022-08-19T06:30:06;11.43;;;8.93;;
54929;SDS011;40833;53.238;6.576;2022-08-19T06:32:32;14.17;;;9.00;;
54929;SDS011;40833;53.238;6.576;2022-08-19T06:34:58;12.97;;;9.27;;
54929;SDS011;40833;53.238;6.576;2022-08-19T06:37:23;13.27;;;8.93;;
54929;SDS011;40833;53.238;6.576;2022-08-19T06:39:49;13.37;;;8.97;;
54929;SDS011;40833;53.238;6.576;2022-08-19T06:42:15;16.30;;;10.07;;
54929;SDS011;40833;53.238;6.576;2022-08-19T06:44:43;13.40;;;10.20;;
54929;SDS011;40833;53.238;6.576;2022-08-19T06:47:12;19.07;;;10.03;;
54929;SDS011;40833;53.238;6.576;2022-08-19T06:49:40;10.77;;;9.10;;
54929;SDS011;40833;53.238;6.576;2022-08-19T06:52:06;12.67;;;9.00;;
54929;SDS011;40833;53.238;6.576;2022-08-19T06:54:33;11.37;;;8.60;;
54929;SDS011;40833;53.238;6.576;2022-08-19T06:56:59;13.67;;;8.60;;
54929;SDS011;40833;53.238;6.576;2022-08-19T06:59:29;11.17;;;8.47;;
54929;SDS011;40833;53.238;6.576;2022-08-19T07:01:57;12.60;;;8.33;;
54929;SDS011;40833;53.238;6.576;2022-08-19T07:04:26;9.67;;;7.97;;
54929;SDS011;40833;53.238;6.576;2022-08-19T07:07:00;9.10;;;8.20;;
54929;SDS011;40833;53.238;6.576;2022-08-19T07:09:28;13.57;;;8.27;;
54929;SDS011;40833;53.238;6.576;2022-08-19T07:11:54;13.57;;;8.10;;
54929;SDS011;40833;53.238;6.576;2022-08-19T07:14:21;12.33;;;8.50;;
54929;SDS011;40833;53.238;6.576;2022-08-19T07:16:50;10.97;;;8.43;;
54929;SDS011;40833;53.238;6.576;2022-08-19T07:19:17;14.47;;;8.87;;
54929;SDS011;40833;53.238;6.576;2022-08-19T07:21:44;11.60;;;8.47;;
54929;SDS011;40833;53.238;6.576;2022-08-19T07:24:11;15.38;;;8.93;;
54929;SDS011;40833;53.238;6.576;2022-08-19T07:26:38;12.70;;;8.65;;
54929;SDS011;40833;53.238;6.576;2022-08-19T07:29:06;11.27;;;8.88;;
54929;SDS011;40833;53.238;6.576;2022-08-19T07:31:32;10.10;;;8.43;;
54929;SDS011;40833;53.238;6.576;2022-08-19T07:34:02;12.82;;;8.95;;
54929;SDS011;40833;53.238;6.576;2022-08-19T07:36:32;15.73;;;8.90;;
54929;SDS011;40833;53.238;6.576;2022-08-19T07:38:59;16.98;;;9.20;;
54929;SDS011;40833;53.238;6.576;2022-08-19T07:41:28;11.68;;;8.88;;
54929;SDS011;40833;53.238;6.576;2022-08-19T07:43:55;9.90;;;8.73;;
54929;SDS011;40833;53.238;6.576;2022-08-19T07:46:21;11.88;;;9.20;;
54929;SDS011;40833;53.238;6.576;2022-08-19T07:48:48;16.83;;;9.90;;
54929;SDS011;40833;53.238;6.576;2022-08-19T07:51:17;12.50;;;9.00;;
54929;SDS011;40833;53.238;6.576;2022-08-19T07:53:46;11.15;;;8.75;;
54929;SDS011;40833;53.238;6.576;2022-08-19T07:56:16;11.48;;;8.20;;
54929;SDS011;40833;53.238;6.576;2022-08-19T07:58:44;12.48;;;8.98;;
54929;SDS011;40833;53.238;6.576;2022-08-19T08:01:12;10.90;;;8.20;;
54929;SDS011;40833;53.238;6.576;2022-08-19T08:03:40;12.07;;;9.82;;
54929;SDS011;40833;53.238;6.576;2022-08-19T08:06:25;10.98;;;8.93;;
54929;SDS011;40833;53.238;6.576;2022-08-19T08:09:09;11.88;;;10.43;;
54929;SDS011;40833;53.238;6.576;2022-08-19T08:11:36;14.00;;;11.43;;
54929;SDS011;40833;53.238;6.576;2022-08-19T08:14:07;12.88;;;10.13;;
54929;SDS011;40833;53.238;6.576;2022-08-19T08:16:37;11.05;;;9.65;;
54929;SDS011;40833;53.238;6.576;2022-08-19T08:19:06;10.57;;;9.57;;
54929;SDS011;40833;53.238;6.576;2022-08-19T08:21:33;10.02;;;8.38;;
54929;SDS011;40833;53.238;6.576;2022-08-19T08:23:59;11.23;;;8.98;;
54929;SDS011;40833;53.238;6.576;2022-08-19T08:26:24;10.00;;;8.05;;
54929;SDS011;40833;53.238;6.576;2022-08-19T08:28:51;8.88;;;7.95;;
54929;SDS011;40833;53.238;6.576;2022-08-19T08:31:20;8.25;;;6.35;;
54929;SDS011;40833;53.238;6.576;2022-08-19T08:33:47;9.27;;;6.97;;
54929;SDS011;40833;53.238;6.576;2022-08-19T08:36:13;6.55;;;5.82;;
54929;SDS011;40833;53.238;6.576;2022-08-19T08:38:40;6.82;;;5.07;;
54929;SDS011;40833;53.238;6.576;2022-08-19T08:43:48;8.25;;;5.95;;
54929;SDS011;40833;53.238;6.576;2022-08-19T08:52:02;9.55;;;8.30;;
54929;SDS011;40833;53.238;6.576;2022-08-19T08:54:40;11.77;;;9.73;;
54929;SDS011;40833;53.238;6.576;2022-08-19T08:57:14;11.80;;;8.77;;
54929;SDS011;40833;53.238;6.576;2022-08-19T08:59:45;10.32;;;9.35;;
54929;SDS011;40833;53.238;6.576;2022-08-19T09:02:16;12.13;;;9.27;;
54929;SDS011;40833;53.238;6.576;2022-08-19T09:04:42;11.25;;;8.90;;
54929;SDS011;40833;53.238;6.576;2022-08-19T09:13:01;13.65;;;8.10;;
54929;SDS011;40833;53.238;6.576;2022-08-19T09:16:32;9.43;;;7.82;;
54929;SDS011;40833;53.238;6.576;2022-08-19T09:18:44;11.23;;;9.90;;
54929;SDS011;40833;53.238;6.576;2022-08-19T09:21:13;14.18;;;10.13;;
54929;SDS011;40833;53.238;6.576;2022-08-19T09:23:40;10.18;;;9.27;;
54929;SDS011;40833;53.238;6.576;2022-08-19T09:26:06;12.35;;;9.63;;
54929;SDS011;40833;53.238;6.576;2022-08-19T09:28:40;11.77;;;8.23;;
54929;SDS011;40833;53.238;6.576;2022-08-19T09:31:09;9.18;;;7.28;;
54929;SDS011;40833;53.238;6.576;2022-08-19T09:33:39;15.18;;;10.27;;
54929;SDS011;40833;53.238;6.576;2022-08-19T09:36:06;10.00;;;7.85;;
54929;SDS011;40833;53.238;6.576;2022-08-19T09:38:35;10.13;;;8.23;;
54929;SDS011;40833;53.238;6.576;2022-08-19T09:41:05;11.48;;;8.55;;
54929;SDS011;40833;53.238;6.576;2022-08-19T09:43:32;9.40;;;8.50;;
54929;SDS011;40833;53.238;6.576;2022-08-19T09:46:01;8.60;;;7.57;;
54929;SDS011;40833;53.238;6.576;2022-08-19T09:48:31;10.50;;;8.38;;
54929;SDS011;40833;53.238;6.576;2022-08-19T09:51:04;9.57;;;8.52;;
54929;SDS011;40833;53.238;6.576;2022-08-19T09:53:33;12.90;;;8.60;;
54929;SDS011;40833;53.238;6.576;2022-08-19T09:56:00;8.18;;;7.38;;
54929;SDS011;40833;53.238;6.576;2022-08-19T09:58:26;10.48;;;8.20;;
54929;SDS011;40833;53.238;6.576;2022-08-19T10:00:56;9.40;;;8.30;;
54929;SDS011;40833;53.238;6.576;2022-08-19T10:03:24;9.48;;;7.50;;
54929;SDS011;40833;53.238;6.576;2022-08-19T10:05:52;9.95;;;8.88;;
54929;SDS011;40833;53.238;6.576;2022-08-19T10:08:23;8.38;;;7.30;;
54929;SDS011;40833;53.238;6.576;2022-08-19T10:10:55;15.77;;;8.60;;
54929;SDS011;40833;53.238;6.576;2022-08-19T10:13:23;9.60;;;8.45;;
54929;SDS011;40833;53.238;6.576;2022-08-19T10:15:53;8.60;;;7.80;;
54929;SDS011;40833;53.238;6.576;2022-08-19T10:18:22;12.20;;;8.95;;
54929;SDS011;40833;53.238;6.576;2022-08-19T10:20:49;12.05;;;10.18;;
54929;SDS011;40833;53.238;6.576;2022-08-19T10:23:17;9.55;;;8.65;;
54929;SDS011;40833;53.238;6.576;2022-08-19T10:25:44;11.13;;;10.15;;
54929;SDS011;40833;53.238;6.576;2022-08-19T10:28:10;11.13;;;10.00;;
54929;SDS011;40833;53.238;6.576;2022-08-19T10:30:39;10.57;;;8.73;;
54929;SDS011;40833;53.238;6.576;2022-08-19T10:33:05;9.32;;;7.25;;
54929;SDS011;40833;53.238;6.576;2022-08-19T10:35:31;9.45;;;8.55;;
54929;SDS011;40833;53.238;6.576;2022-08-19T10:37:57;7.82;;;6.88;;
54929;SDS011;40833;53.238;6.576;2022-08-19T10:40:28;8.73;;;7.95;;
54929;SDS011;40833;53.238;6.576;2022-08-19T10:42:54;10.05;;;8.68;;
54929;SDS011;40833;53.238;6.576;2022-08-19T10:45:21;11.38;;;9.48;;
54929;SDS011;40833;53.238;6.576;2022-08-19T10:47:50;9.95;;;8.93;;
54929;SDS011;40833;53.238;6.576;2022-08-19T10:50:15;9.80;;;8.90;;
54929;SDS011;40833;53.238;6.576;2022-08-19T10:53:03;11.23;;;8.10;;
54929;SDS011;40833;53.238;6.576;2022-08-19T10:55:30;11.13;;;8.63;;
54929;SDS011;40833;53.238;6.576;2022-08-19T10:58:16;9.77;;;8.77;;
54929;SDS011;40833;53.238;6.576;2022-08-19T11:00:55;10.45;;;9.35;;
54929;SDS011;40833;53.238;6.576;2022-08-19T11:03:23;9.70;;;8.77;;
54929;SDS011;40833;53.238;6.576;2022-08-19T11:05:59;19.08;;;9.75;;
54929;SDS011;40833;53.238;6.576;2022-08-19T11:08:30;11.23;;;10.23;;
54929;SDS011;40833;53.238;6.576;2022-08-19T11:10:57;10.38;;;9.13;;
54929;SDS011;40833;53.238;6.576;2022-08-19T11:13:26;11.98;;;10.57;;
54929;SDS011;40833;53.238;6.576;2022-08-19T11:15:56;14.52;;;13.13;;
54929;SDS011;40833;53.238;6.576;2022-08-19T11:18:23;13.88;;;12.68;;
54929;SDS011;40833;53.238;6.576;2022-08-19T11:20:49;14.02;;;12.55;;
54929;SDS011;40833;53.238;6.576;2022-08-19T11:23:14;11.77;;;10.63;;
54929;SDS011;40833;53.238;6.576;2022-08-19T11:25:40;12.73;;;9.98;;
54929;SDS011;40833;53.238;6.576;2022-08-19T11:28:06;10.23;;;9.02;;
54929;SDS011;40833;53.238;6.576;2022-08-19T11:30:32;7.55;;;6.75;;
54929;SDS011;40833;53.238;6.576;2022-08-19T11:32:59;9.25;;;8.35;;
54929;SDS011;40833;53.238;6.576;2022-08-19T11:35:25;10.02;;;9.05;;
54929;SDS011;40833;53.238;6.576;2022-08-19T11:37:51;10.18;;;9.27;;
54929;SDS011;40833;53.238;6.576;2022-08-19T11:40:17;12.13;;;10.60;;
54929;SDS011;40833;53.238;6.576;2022-08-19T11:42:43;11.27;;;10.05;;
54929;SDS011;40833;53.238;6.576;2022-08-19T11:45:22;11.30;;;10.23;;
54929;SDS011;40833;53.238;6.576;2022-08-19T11:47:48;11.38;;;9.43;;
54929;SDS011;40833;53.238;6.576;2022-08-19T11:50:14;11.73;;;8.75;;
54929;SDS011;40833;53.238;6.576;2022-08-19T11:52:41;10.63;;;9.77;;
54929;SDS011;40833;53.238;6.576;2022-08-19T11:55:08;9.70;;;8.80;;
54929;SDS011;40833;53.238;6.576;2022-08-19T11:59:56;8.40;;;7.55;;
54929;SDS011;40833;53.238;6.576;2022-08-19T12:02:22;11.73;;;8.77;;
54929;SDS011;40833;53.238;6.576;2022-08-19T12:04:48;9.20;;;8.25;;
54929;SDS011;40833;53.238;6.576;2022-08-19T12:07:14;9.70;;;8.68;;
54929;SDS011;40833;53.238;6.576;2022-08-19T12:09:40;9.63;;;8.40;;
54929;SDS011;40833;53.238;6.576;2022-08-19T12:12:06;9.60;;;7.90;;
54929;SDS011;40833;53.238;6.576;2022-08-19T12:18:44;8.23;;;7.28;;
54929;SDS011;40833;53.238;6.576;2022-08-19T12:21:18;6.97;;;5.80;;
54929;SDS011;40833;53.238;6.576;2022-08-19T12:26:19;9.57;;;8.32;;
54929;SDS011;40833;53.238;6.576;2022-08-19T12:52:37;10.07;;;7.63;;
54929;SDS011;40833;53.238;6.576;2022-08-19T12:55:04;7.97;;;7.05;;
54929;SDS011;40833;53.238;6.576;2022-08-19T12:57:30;9.45;;;7.25;;
54929;SDS011;40833;53.238;6.576;2022-08-19T13:05:15;14.43;;;8.13;;
54929;SDS011;40833;53.238;6.576;2022-08-19T13:07:44;8.93;;;6.85;;
54929;SDS011;40833;53.238;6.576;2022-08-19T13:10:11;8.25;;;7.50;;
54929;SDS011;40833;53.238;6.576;2022-08-19T13:12:40;10.50;;;7.95;;
54929;SDS011;40833;53.238;6.576;2022-08-19T13:15:07;10.07;;;7.90;;
54929;SDS011;40833;53.238;6.576;2022-08-19T13:17:33;14.32;;;9.23;;
54929;SDS011;40833;53.238;6.576;2022-08-19T13:20:00;12.45;;;10.68;;
54929;SDS011;40833;53.238;6.576;2022-08-19T13:22:26;16.45;;;11.05;;
54929;SDS011;40833;53.238;6.576;2022-08-19T13:24:52;18.65;;;12.23;;
54929;SDS011;40833;53.238;6.576;2022-08-19T13:27:18;12.93;;;9.60;;
54929;SDS011;40833;53.238;6.576;2022-08-19T13:36:19;12.55;;;9.90;;
54929;SDS011;40833;53.238;6.576;2022-08-19T13:38:45;14.60;;;9.02;;
54929;SDS011;40833;53.238;6.576;2022-08-19T13:41:10;10.90;;;8.32;;
54929;SDS011;40833;53.238;6.576;2022-08-19T13:43:36;11.38;;;9.45;;
54929;SDS011;40833;53.238;6.576;2022-08-19T13:46:07;10.55;;;9.05;;
54929;SDS011;40833;53.238;6.576;2022-08-19T13:48:35;14.77;;;11.00;;
54929;SDS011;40833;53.238;6.576;2022-08-19T13:51:01;16.92;;;9.82;;
54929;SDS011;40833;53.238;6.576;2022-08-19T13:58:22;11.15;;;10.10;;
54929;SDS011;40833;53.238;6.576;2022-08-19T14:00:47;11.07;;;9.60;;
54929;SDS011;40833;53.238;6.576;2022-08-19T14:03:14;9.10;;;8.20;;
54929;SDS011;40833;53.238;6.576;2022-08-19T14:05:40;11.15;;;7.80;;
54929;SDS011;40833;53.238;6.576;2022-08-19T14:08:06;8.60;;;6.53;;
54929;SDS011;40833;53.238;6.576;2022-08-19T14:10:32;11.43;;;5.75;;
54929;SDS011;40833;53.238;6.576;2022-08-19T14:12:59;5.88;;;5.30;;
54929;SDS011;40833;53.238;6.576;2022-08-19T14:20:08;3.95;;;3.65;;
54929;SDS011;40833;53.238;6.576;2022-08-19T14:22:37;4.25;;;3.63;;
54929;SDS011;40833;53.238;6.576;2022-08-19T14:25:06;4.45;;;4.05;;
54929;SDS011;40833;53.238;6.576;2022-08-19T14:27:34;4.35;;;3.95;;
54929;SDS011;40833;53.238;6.576;2022-08-19T14:30:01;3.80;;;3.50;;
54929;SDS011;40833;53.238;6.576;2022-08-19T14:32:28;6.50;;;4.75;;
54929;SDS011;40833;53.238;6.576;2022-08-19T14:34:53;14.85;;;9.40;;
54929;SDS011;40833;53.238;6.576;2022-08-19T14:37:19;10.43;;;8.48;;
54929;SDS011;40833;53.238;6.576;2022-08-19T14:39:46;15.13;;;8.60;;
54929;SDS011;40833;53.238;6.576;2022-08-19T14:51:57;12.18;;;9.25;;
54929;SDS011;40833;53.238;6.576;2022-08-19T14:54:23;13.43;;;9.38;;
54929;SDS011;40833;53.238;6.576;2022-08-19T14:56:49;18.02;;;9.18;;
54929;SDS011;40833;53.238;6.576;2022-08-19T14:59:15;15.88;;;10.27;;
54929;SDS011;40833;53.238;6.576;2022-08-19T15:01:41;16.40;;;10.10;;
54929;SDS011;40833;53.238;6.576;2022-08-19T15:04:07;11.77;;;9.38;;
54929;SDS011;40833;53.238;6.576;2022-08-19T15:06:32;14.05;;;10.57;;
54929;SDS011;40833;53.238;6.576;2022-08-19T15:08:59;13.27;;;9.02;;
54929;SDS011;40833;53.238;6.576;2022-08-19T15:11:26;11.65;;;8.30;;
54929;SDS011;40833;53.238;6.576;2022-08-19T15:13:53;13.18;;;7.32;;
54929;SDS011;40833;53.238;6.576;2022-08-19T15:22:52;15.90;;;10.27;;
54929;SDS011;40833;53.238;6.576;2022-08-19T15:25:18;13.60;;;9.50;;
54929;SDS011;40833;53.238;6.576;2022-08-19T15:27:45;13.45;;;9.50;;
54929;SDS011;40833;53.238;6.576;2022-08-19T15:30:12;12.55;;;8.57;;
54929;SDS011;40833;53.238;6.576;2022-08-19T15:32:50;10.02;;;8.20;;
54929;SDS011;40833;53.238;6.576;2022-08-19T15:35:19;10.60;;;7.15;;
54929;SDS011;40833;53.238;6.576;2022-08-19T15:39:38;11.77;;;5.40;;
54929;SDS011;40833;53.238;6.576;2022-08-19T16:02:49;15.57;;;10.65;;
54929;SDS011;40833;53.238;6.576;2022-08-19T16:05:33;13.25;;;10.95;;
54929;SDS011;40833;53.238;6.576;2022-08-19T16:08:17;14.63;;;11.82;;
54929;SDS011;40833;53.238;6.576;2022-08-19T16:10:43;14.27;;;11.10;;
54929;SDS011;40833;53.238;6.576;2022-08-19T16:13:09;15.90;;;10.63;;
54929;SDS011;40833;53.238;6.576;2022-08-19T16:15:35;13.75;;;10.52;;
54929;SDS011;40833;53.238;6.576;2022-08-19T16:18:01;11.88;;;10.77;;
54929;SDS011;40833;53.238;6.576;2022-08-19T16:24:33;14.57;;;11.70;;
54929;SDS011;40833;53.238;6.576;2022-08-19T16:26:59;14.80;;;11.25;;
54929;SDS011;40833;53.238;6.576;2022-08-19T16:29:25;13.23;;;10.68;;
54929;SDS011;40833;53.238;6.576;2022-08-19T16:31:52;15.57;;;11.00;;
54929;SDS011;40833;53.238;6.576;2022-08-19T16:34:19;11.20;;;9.05;;
54929;SDS011;40833;53.238;6.576;2022-08-19T16:36:46;11.35;;;8.80;;